Time;durP1;ratioP1;P1;durP2;ratioP2;P2;SDS_P1;SDS_P2;PMS_P1;PMS_P2;Temp;Humidity;BMP_temperature;BMP_pressure;BME280_temperature;BME280_humidity;BME280_pressure;Samples;Min_cycle;Max_cycle;Signal;HPM_P1;HPM_P2
2022/09/09 00:01:53;;;;;;;1999.90;999.90;;;13.80;99.90;;;;;;5074048;28;20160;-70
2022/09/09 00:04:35;;;;;;;1999.90;999.90;;;13.70;99.90;;;;;;5088836;28;20101;-70
2022/09/09 00:07:04;;;;;;;1999.90;999.90;;;13.70;99.90;;;;;;5084028;28;20071;-71
2022/09/09 00:09:44;;;;;;;1999.90;999.90;;;13.70;99.90;;;;;;5091101;28;20036;-70
2022/09/09 00:12:13;;;;;;;1999.90;999.90;;;13.60;99.90;;;;;;5076234;28;20047;-70
2022/09/09 00:14:59;;;;;;;1999.90;999.90;;;13.60;99.90;;;;;;5074989;28;20056;-70
2022/09/09 00:17:40;;;;;;;1999.90;999.90;;;13.50;99.90;;;;;;5053712;28;20074;-70
2022/09/09 00:20:12;;;;;;;1999.90;999.90;;;13.50;99.90;;;;;;5063800;28;20047;-70
2022/09/09 00:22:43;;;;;;;1999.90;999.90;;;13.50;99.90;;;;;;5083453;28;20048;-70
2022/09/09 00:25:16;;;;;;;1999.90;999.90;;;13.50;99.90;;;;;;5064347;28;20056;-70
2022/09/09 00:27:47;;;;;;;1999.90;999.90;;;13.50;99.90;;;;;;5065860;28;20116;-70
2022/09/09 00:30:13;;;;;;;1999.90;999.90;;;13.40;99.90;;;;;;5089327;28;20051;-69
2022/09/09 00:32:40;;;;;;;1999.90;999.90;;;13.40;99.90;;;;;;5073947;28;20040;-70
2022/09/09 00:35:23;;;;;;;1999.90;999.90;;;13.40;99.90;;;;;;5069326;28;20366;-70
2022/09/09 00:37:53;;;;;;;1999.90;999.90;;;13.40;99.90;;;;;;5055885;28;20044;-69
2022/09/09 00:40:32;;;;;;;1999.90;999.90;;;13.30;99.90;;;;;;5073389;28;20430;-71
2022/09/09 00:43:26;;;;;;;1999.90;999.90;;;13.30;99.90;;;;;;5070408;28;20091;-70
2022/09/09 00:46:00;;;;;;;1999.90;999.90;;;13.30;99.90;;;;;;5055500;28;20047;-70
2022/09/09 00:48:41;;;;;;;1999.90;999.90;;;13.30;99.90;;;;;;5080728;28;20078;-69
2022/09/09 00:51:17;;;;;;;1999.90;999.90;;;13.30;99.90;;;;;;5056463;28;20044;-70
2022/09/09 00:54:18;;;;;;;1999.90;999.90;;;13.30;99.90;;;;;;5071969;28;20131;-70
2022/09/09 00:57:12;;;;;;;1999.90;999.90;;;13.30;99.90;;;;;;5061215;28;20047;-70
2022/09/09 00:59:58;;;;;;;1999.90;999.90;;;13.20;99.90;;;;;;5087286;28;20063;-70
2022/09/09 01:03:03;;;;;;;1999.90;999.90;;;13.20;99.90;;;;;;5070971;28;20581;-69
2022/09/09 01:05:54;;;;;;;1999.90;999.90;;;13.20;99.90;;;;;;5049277;28;20494;-69
2022/09/09 01:08:56;;;;;;;1999.90;999.90;;;13.10;99.90;;;;;;5053157;28;20036;-69
2022/09/09 01:11:31;;;;;;;1999.90;999.90;;;13.10;99.90;;;;;;5068431;28;20036;-70
2022/09/09 01:14:09;;;;;;;1999.90;999.90;;;13.10;99.90;;;;;;5052353;28;20036;-69
2022/09/09 01:16:36;;;;;;;1999.90;999.90;;;13.10;99.90;;;;;;5055110;28;20422;-69
2022/09/09 01:19:06;;;;;;;1999.90;999.90;;;13.00;99.90;;;;;;5093301;28;20040;-70
2022/09/09 01:21:56;;;;;;;1999.90;999.90;;;13.00;99.90;;;;;;5068432;28;20044;-69
2022/09/09 01:24:40;;;;;;;1999.90;999.90;;;13.00;99.90;;;;;;5052454;28;20044;-70
2022/09/09 01:27:07;;;;;;;1999.90;999.90;;;13.00;99.90;;;;;;5065992;28;20038;-69
2022/09/09 01:29:33;;;;;;;1999.90;999.90;;;13.00;99.90;;;;;;5075580;28;20124;-70
2022/09/09 01:32:02;;;;;;;1999.90;999.90;;;13.00;99.90;;;;;;5076084;28;20127;-69
2022/09/09 01:34:35;;;;;;;1999.90;999.90;;;12.90;99.90;;;;;;5053662;28;20832;-70
2022/09/09 01:37:05;;;;;;;1999.90;999.90;;;12.90;99.90;;;;;;5056315;28;20054;-70
2022/09/09 01:39:33;;;;;;;1999.90;999.90;;;12.90;99.90;;;;;;5090817;28;20036;-70
2022/09/09 01:41:59;;;;;;;1999.90;999.90;;;12.90;99.90;;;;;;5091538;28;20047;-69
2022/09/09 01:44:26;;;;;;;1999.90;999.90;;;13.00;99.90;;;;;;5043903;28;20480;-70
2022/09/09 01:46:52;;;;;;;1999.90;999.90;;;13.00;99.90;;;;;;5070171;28;20684;-70
2022/09/09 01:49:17;;;;;;;1999.90;999.90;;;13.00;99.90;;;;;;5072768;28;20464;-70
2022/09/09 01:51:46;;;;;;;1999.90;999.90;;;13.00;99.90;;;;;;5090692;28;20437;-69
2022/09/09 01:54:11;;;;;;;1999.90;999.90;;;13.00;99.90;;;;;;5070925;28;20363;-69
2022/09/09 01:57:10;;;;;;;1999.90;999.90;;;13.00;99.90;;;;;;5074531;28;20040;-69
2022/09/09 01:59:47;;;;;;;1999.90;999.90;;;13.00;99.90;;;;;;5070855;28;20471;-69
2022/09/09 02:02:17;;;;;;;1999.90;999.90;;;13.10;99.90;;;;;;5088275;28;20052;-70
2022/09/09 02:04:50;;;;;;;1999.90;999.90;;;13.10;99.90;;;;;;5060848;28;20125;-69
2022/09/09 02:07:37;;;;;;;1999.90;999.90;;;13.10;99.90;;;;;;5072237;28;20036;-69
2022/09/09 02:10:12;;;;;;;1999.90;999.90;;;13.20;99.90;;;;;;5070250;28;20491;-69
2022/09/09 02:12:48;;;;;;;1999.90;999.90;;;13.20;99.90;;;;;;5090490;28;20040;-70
2022/09/09 02:15:28;;;;;;;1999.90;999.90;;;13.30;99.90;;;;;;5069274;28;20708;-69
2022/09/09 02:17:57;;;;;;;1999.90;999.90;;;13.30;99.90;;;;;;5072504;28;20178;-69
2022/09/09 02:20:24;;;;;;;1999.90;999.90;;;13.40;99.90;;;;;;5090757;28;20150;-69
2022/09/09 02:22:52;;;;;;;1999.90;999.90;;;13.40;99.90;;;;;;5087177;28;20044;-70
2022/09/09 02:25:21;;;;;;;1999.90;999.90;;;13.50;99.90;;;;;;5090190;28;20051;-69
2022/09/09 02:27:51;;;;;;;1999.90;999.90;;;13.50;99.90;;;;;;5071196;28;20036;-69
2022/09/09 02:30:18;;;;;;;1999.90;999.90;;;13.60;99.90;;;;;;5073887;28;20879;-69
2022/09/09 02:32:46;;;;;;;1999.90;999.90;;;13.60;99.90;;;;;;5058141;28;20052;-70
2022/09/09 02:35:15;;;;;;;1999.90;999.90;;;13.60;99.90;;;;;;5062191;28;20062;-69
2022/09/09 02:37:45;;;;;;;1999.90;999.90;;;13.70;99.90;;;;;;5071884;28;20083;-70
2022/09/09 02:40:14;;;;;;;1999.90;999.90;;;13.70;99.90;;;;;;5078006;28;20105;-69
2022/09/09 02:42:45;;;;;;;1999.90;999.90;;;13.70;99.90;;;;;;5092119;28;20139;-69
2022/09/09 02:45:15;;;;;;;1999.90;999.90;;;13.70;99.90;;;;;;5077262;28;20122;-69
2022/09/09 02:48:09;;;;;;;1999.90;999.90;;;13.80;99.90;;;;;;5082859;28;20047;-69
2022/09/09 02:51:06;;;;;;;1999.90;999.90;;;13.80;99.90;;;;;;5055224;28;20127;-69
2022/09/09 02:53:53;;;;;;;1999.90;999.90;;;13.80;99.90;;;;;;5052827;28;20039;-69
2022/09/09 02:56:23;;;;;;;1999.90;999.90;;;13.80;99.90;;;;;;5070856;28;20047;-69
2022/09/09 02:58:51;;;;;;;1999.90;999.90;;;13.80;99.90;;;;;;5098215;28;20519;-69
2022/09/09 03:01:17;;;;;;;1999.90;999.90;;;13.80;99.90;;;;;;5071211;28;20036;-69
2022/09/09 03:03:44;;;;;;;1999.90;999.90;;;13.80;99.90;;;;;;5072095;28;20404;-70
2022/09/09 03:06:11;;;;;;;1999.90;999.90;;;13.80;99.90;;;;;;5080787;28;20032;-69
2022/09/09 03:08:37;;;;;;;1999.90;999.90;;;13.80;99.90;;;;;;5067797;28;20695;-69
2022/09/09 03:11:03;;;;;;;1999.90;999.90;;;13.90;99.90;;;;;;5088720;28;20044;-70
2022/09/09 03:13:29;;;;;;;1999.90;999.90;;;13.90;99.90;;;;;;5066946;28;20479;-69
2022/09/09 03:15:55;;;;;;;1999.90;999.90;;;13.90;99.90;;;;;;5070058;28;20119;-70
2022/09/09 03:18:20;;;;;;;1999.90;999.90;;;13.90;99.90;;;;;;5062039;28;20070;-70
2022/09/09 03:20:48;;;;;;;1999.90;999.90;;;13.90;99.90;;;;;;5071225;28;20251;-70
2022/09/09 03:23:14;;;;;;;1999.90;999.90;;;13.90;99.90;;;;;;5060069;28;20052;-69
2022/09/09 03:25:46;;;;;;;1999.90;999.90;;;13.90;99.90;;;;;;5089405;28;20036;-70
2022/09/09 03:28:12;;;;;;;1999.90;999.90;;;13.90;99.90;;;;;;5102921;28;20082;-69
2022/09/09 03:30:37;;;;;;;1999.90;999.90;;;13.90;99.90;;;;;;5072412;28;20138;-69
2022/09/09 03:33:03;;;;;;;1999.90;999.90;;;13.90;99.90;;;;;;5087722;28;20051;-69
2022/09/09 03:35:29;;;;;;;1999.90;999.90;;;13.90;99.90;;;;;;5059299;28;20040;-69
2022/09/09 03:37:55;;;;;;;1999.90;999.90;;;13.90;99.90;;;;;;5062772;28;20495;-69
2022/09/09 03:40:21;;;;;;;1999.90;999.90;;;13.90;99.90;;;;;;5054296;28;20047;-70
2022/09/09 03:42:47;;;;;;;1999.90;999.90;;;13.90;99.90;;;;;;5070966;28;20044;-70
2022/09/09 03:45:13;;;;;;;1999.90;999.90;;;13.90;99.90;;;;;;5053436;28;20579;-69
2022/09/09 03:47:38;;;;;;;1999.90;999.90;;;14.00;99.90;;;;;;5055185;28;20127;-69
2022/09/09 03:50:08;;;;;;;1999.90;999.90;;;14.00;99.90;;;;;;5101502;28;20403;-69
2022/09/09 03:52:38;;;;;;;1999.90;999.90;;;14.00;99.90;;;;;;5074156;28;20069;-70
2022/09/09 03:55:04;;;;;;;1999.90;999.90;;;14.00;99.90;;;;;;5064158;28;20048;-69
2022/09/09 03:57:30;;;;;;;1999.90;999.90;;;14.00;99.90;;;;;;5053198;28;20430;-69
2022/09/09 03:59:56;;;;;;;1999.90;999.90;;;14.00;99.90;;;;;;5069601;28;20032;-69
2022/09/09 04:02:21;;;;;;;1999.90;999.90;;;14.00;99.90;;;;;;5070963;28;20114;-70
2022/09/09 04:04:47;;;;;;;1999.90;999.90;;;14.00;99.90;;;;;;5053880;28;20124;-69
2022/09/09 04:07:13;;;;;;;1999.90;999.90;;;14.00;99.90;;;;;;5091886;28;20044;-69
2022/09/09 04:09:38;;;;;;;1999.90;999.90;;;14.00;99.90;;;;;;5079274;28;21581;-69
2022/09/09 04:12:04;;;;;;;1999.90;999.90;;;14.00;99.90;;;;;;5076598;28;20040;-69
2022/09/09 04:14:30;;;;;;;1999.90;999.90;;;14.00;99.90;;;;;;5076847;28;20566;-70
2022/09/09 04:16:57;;;;;;;1999.90;999.90;;;14.00;99.90;;;;;;5068102;28;20050;-69
2022/09/09 04:19:22;;;;;;;1999.90;999.90;;;14.00;99.90;;;;;;5073188;28;20047;-70
2022/09/09 04:21:50;;;;;;;1999.90;999.90;;;14.10;99.90;;;;;;5068984;28;20046;-69
2022/09/09 04:24:16;;;;;;;1999.90;999.90;;;14.10;99.90;;;;;;5062883;28;20181;-70
2022/09/09 04:26:41;;;;;;;1999.90;999.90;;;14.10;99.90;;;;;;5075647;28;20142;-69
2022/09/09 04:29:07;;;;;;;1999.90;999.90;;;14.10;99.90;;;;;;5069911;28;20054;-70
2022/09/09 04:31:33;;;;;;;1999.90;999.90;;;14.10;99.90;;;;;;5078433;28;20055;-70
2022/09/09 04:34:02;;;;;;;1999.90;999.90;;;14.10;99.90;;;;;;5076381;28;20044;-69
2022/09/09 04:36:27;;;;;;;1999.90;999.90;;;14.10;99.90;;;;;;5077432;28;20054;-69
2022/09/09 04:38:53;;;;;;;1999.90;999.90;;;14.20;99.90;;;;;;5069927;28;20049;-69
2022/09/09 04:41:19;;;;;;;1999.90;999.90;;;14.20;99.90;;;;;;5070296;28;20088;-69
2022/09/09 04:43:44;;;;;;;1999.90;999.90;;;14.20;99.90;;;;;;5069744;28;20112;-69
2022/09/09 04:46:10;;;;;;;1999.90;999.90;;;14.20;99.90;;;;;;5069452;28;20044;-70
2022/09/09 04:48:36;;;;;;;1999.90;999.90;;;14.20;99.90;;;;;;5089243;28;20032;-70
2022/09/09 04:51:04;;;;;;;1999.90;999.90;;;14.20;99.90;;;;;;5078112;28;20103;-70
2022/09/09 04:53:30;;;;;;;1999.90;999.90;;;14.20;99.90;;;;;;5067042;28;20043;-70
2022/09/09 04:56:02;;;;;;;1999.90;999.90;;;14.20;99.90;;;;;;5067246;28;20046;-69
2022/09/09 04:58:28;;;;;;;1999.90;999.90;;;14.20;99.90;;;;;;5070212;28;20055;-69
2022/09/09 05:00:54;;;;;;;1999.90;999.90;;;14.20;99.90;;;;;;5074909;28;20040;-69
2022/09/09 05:03:19;;;;;;;1999.90;999.90;;;14.20;99.90;;;;;;5072592;28;20489;-69
2022/09/09 05:05:45;;;;;;;1999.90;999.90;;;14.20;99.90;;;;;;5088208;28;20047;-69
2022/09/09 05:08:11;;;;;;;1999.90;999.90;;;14.10;99.90;;;;;;5101008;28;20122;-70
2022/09/09 05:10:38;;;;;;;1999.90;999.90;;;14.20;99.90;;;;;;5069647;28;20757;-69
2022/09/09 05:13:04;;;;;;;1999.90;999.90;;;14.20;99.90;;;;;;5084122;28;20048;-69
2022/09/09 05:15:31;;;;;;;1999.90;999.90;;;14.20;99.90;;;;;;5062463;28;20039;-69
2022/09/09 05:17:59;;;;;;;1999.90;999.90;;;14.20;99.90;;;;;;5072175;28;20055;-70
2022/09/09 05:20:24;;;;;;;1999.90;999.90;;;14.20;99.90;;;;;;5068736;28;20032;-69
2022/09/09 05:22:54;;;;;;;1999.90;999.90;;;14.20;99.90;;;;;;5074847;28;20047;-69
2022/09/09 05:25:19;;;;;;;1999.90;999.90;;;14.20;99.90;;;;;;5067644;28;20119;-69
2022/09/09 05:27:45;;;;;;;1999.90;999.90;;;14.20;99.90;;;;;;5073619;28;20124;-69
2022/09/09 05:30:11;;;;;;;1999.90;999.90;;;14.20;99.90;;;;;;5083751;28;20039;-68
2022/09/09 05:32:36;;;;;;;1999.90;999.90;;;14.20;99.90;;;;;;5077085;28;20040;-69
2022/09/09 05:35:03;;;;;;;1999.90;999.90;;;14.20;99.90;;;;;;5078291;28;20389;-69
2022/09/09 05:37:31;;;;;;;1999.90;999.90;;;14.20;99.90;;;;;;5031829;28;20055;-69
2022/09/09 05:39:57;;;;;;;1999.90;999.90;;;14.20;99.90;;;;;;5038911;28;20044;-69
2022/09/09 05:42:23;;;;;;;1999.90;999.90;;;14.20;99.90;;;;;;5075676;28;20052;-70
2022/09/09 05:44:48;;;;;;;1999.90;999.90;;;14.20;99.90;;;;;;5070447;28;20036;-69
2022/09/09 05:47:15;;;;;;;1999.90;999.90;;;14.20;99.90;;;;;;5046096;28;20039;-69
2022/09/09 05:49:40;;;;;;;1999.90;999.90;;;14.20;99.90;;;;;;5087314;28;20047;-69
2022/09/09 05:52:06;;;;;;;1999.90;999.90;;;14.20;99.90;;;;;;5061447;28;20040;-69
2022/09/09 05:54:32;;;;;;;1999.90;999.90;;;14.20;99.90;;;;;;5059716;28;20047;-69
2022/09/09 05:56:58;;;;;;;1999.90;999.90;;;14.20;99.90;;;;;;5081373;28;20505;-69
2022/09/09 05:59:23;;;;;;;1999.90;999.90;;;14.30;99.90;;;;;;5045060;28;20036;-70
2022/09/09 06:01:49;;;;;;;1999.90;999.90;;;14.30;99.90;;;;;;5043000;28;20046;-69
2022/09/09 06:04:15;;;;;;;1999.90;999.90;;;14.30;99.90;;;;;;5080459;28;20044;-69
2022/09/09 06:06:41;;;;;;;1999.90;999.90;;;14.30;99.90;;;;;;5075037;28;20135;-69
2022/09/09 06:09:10;;;;;;;1999.90;999.90;;;14.30;99.90;;;;;;5069540;28;20743;-69
2022/09/09 06:11:38;;;;;;;1999.90;999.90;;;14.30;99.90;;;;;;5063882;28;20127;-69
2022/09/09 06:14:04;;;;;;;1999.90;999.90;;;14.40;99.90;;;;;;5058749;28;20041;-69
2022/09/09 06:16:34;;;;;;;1999.90;999.90;;;14.40;99.90;;;;;;5057872;28;20048;-69
2022/09/09 06:19:00;;;;;;;1999.90;999.90;;;14.40;99.90;;;;;;5060251;28;20040;-69
2022/09/09 06:21:36;;;;;;;1999.90;999.90;;;14.50;99.90;;;;;;5058634;28;20036;-69
2022/09/09 06:24:03;;;;;;;1999.90;999.90;;;14.50;99.90;;;;;;5047447;28;20044;-69
2022/09/09 06:26:34;;;;;;;1999.90;999.90;;;14.50;99.90;;;;;;5081507;28;20075;-69
2022/09/09 06:29:03;;;;;;;1999.90;999.90;;;14.50;99.90;;;;;;5053545;28;20047;-69
2022/09/09 06:31:30;;;;;;;1999.90;999.90;;;14.60;99.90;;;;;;5080065;28;20056;-69
2022/09/09 06:33:58;;;;;;;1999.90;999.90;;;14.60;99.90;;;;;;5062325;28;20040;-69
2022/09/09 06:36:26;;;;;;;1999.90;999.90;;;14.70;99.90;;;;;;5068042;28;20127;-69
2022/09/09 06:38:52;;;;;;;1999.90;999.90;;;14.70;99.90;;;;;;5066300;28;20484;-69
2022/09/09 06:41:19;;;;;;;1999.90;999.90;;;14.80;99.90;;;;;;5068440;28;20093;-69
2022/09/09 06:43:46;;;;;;;1999.90;999.90;;;14.80;99.90;;;;;;5076302;28;20044;-69
2022/09/09 06:46:18;;;;;;;1999.90;999.90;;;14.90;99.90;;;;;;5076573;28;20404;-68
2022/09/09 06:48:44;;;;;;;1999.90;999.90;;;14.80;99.90;;;;;;5071572;28;20052;-69
2022/09/09 06:51:17;;;;;;;1999.90;999.90;;;14.80;99.90;;;;;;5073040;28;20391;-68
2022/09/09 06:53:44;;;;;;;1999.90;999.90;;;14.80;99.90;;;;;;5072982;28;20086;-69
2022/09/09 06:56:09;;;;;;;1999.90;999.90;;;14.80;99.90;;;;;;5068601;28;20044;-69
2022/09/09 06:58:36;;;;;;;1999.90;999.90;;;14.80;99.90;;;;;;5089738;28;20036;-69
2022/09/09 07:01:06;;;;;;;1999.90;999.90;;;14.80;99.90;;;;;;5063978;28;20041;-68
2022/09/09 07:03:33;;;;;;;1999.90;999.90;;;14.80;99.90;;;;;;5073876;28;20368;-68
2022/09/09 07:05:59;;;;;;;1999.90;999.90;;;14.80;99.90;;;;;;5068739;28;20557;-68
2022/09/09 07:08:24;;;;;;;1999.90;999.90;;;14.80;99.90;;;;;;5068798;28;20031;-69
2022/09/09 07:10:53;;;;;;;1999.90;999.90;;;14.80;99.90;;;;;;5080250;28;20408;-69
2022/09/09 07:13:25;;;;;;;1999.90;999.90;;;14.80;99.90;;;;;;5064126;28;20032;-69
2022/09/09 07:15:51;;;;;;;1999.90;999.90;;;14.80;99.90;;;;;;5073191;28;20043;-69
2022/09/09 07:18:16;;;;;;;1999.90;999.90;;;14.90;99.90;;;;;;5058520;28;20048;-68
2022/09/09 07:20:42;;;;;;;1999.90;999.90;;;15.00;99.90;;;;;;5069217;28;20044;-68
2022/09/09 07:23:08;;;;;;;1999.90;999.90;;;15.10;99.90;;;;;;5085674;28;20154;-68
2022/09/09 07:25:33;;;;;;;1999.90;999.90;;;15.10;99.90;;;;;;5094719;28;20071;-68
2022/09/09 07:27:59;;;;;;;1999.90;999.90;;;15.10;99.90;;;;;;5068737;28;20454;-69
2022/09/09 07:30:24;;;;;;;1999.90;999.90;;;15.10;99.90;;;;;;5070209;28;20377;-68
2022/09/09 07:32:51;;;;;;;1999.90;999.90;;;15.20;99.90;;;;;;5066665;28;20044;-68
2022/09/09 07:35:17;;;;;;;1999.90;999.90;;;15.30;99.90;;;;;;5077034;28;20033;-68
2022/09/09 07:37:45;;;;;;;1999.90;999.90;;;15.30;99.90;;;;;;5068937;28;20546;-68
2022/09/09 07:40:10;;;;;;;1999.90;999.90;;;15.40;99.90;;;;;;5086263;28;20126;-68
2022/09/09 07:42:37;;;;;;;1999.90;999.90;;;15.40;99.90;;;;;;5066601;28;20151;-68
2022/09/09 07:45:03;;;;;;;1999.90;999.90;;;15.50;99.90;;;;;;5085302;28;20060;-68
2022/09/09 07:47:29;;;;;;;1999.90;999.90;;;15.60;99.90;;;;;;5077139;28;20127;-69
2022/09/09 07:49:55;;;;;;;1999.90;999.90;;;15.70;99.90;;;;;;5078573;28;20119;-68
2022/09/09 07:52:21;;;;;;;1999.90;999.90;;;15.70;99.90;;;;;;5067870;28;20078;-68
2022/09/09 07:54:47;;;;;;;1999.90;999.90;;;15.80;99.90;;;;;;5067080;28;20523;-68
2022/09/09 07:57:13;;;;;;;1999.90;999.90;;;15.90;99.90;;;;;;5084624;28;20488;-69
2022/09/09 07:59:38;;;;;;;1999.90;999.90;;;15.90;99.90;;;;;;5045623;28;20039;-68
2022/09/09 08:02:04;;;;;;;1999.90;999.90;;;15.90;99.90;;;;;;5062745;28;20434;-69
2022/09/09 08:04:30;;;;;;;1999.90;999.90;;;15.90;99.90;;;;;;5061298;28;20540;-68
2022/09/09 08:06:59;;;;;;;1999.90;999.90;;;16.00;99.90;;;;;;5066764;28;20123;-68
2022/09/09 08:09:28;;;;;;;1999.90;999.90;;;16.00;99.90;;;;;;5064412;28;20443;-68
2022/09/09 08:11:56;;;;;;;1999.90;999.90;;;16.00;99.90;;;;;;5066135;28;20039;-68
2022/09/09 08:14:22;;;;;;;1999.90;999.90;;;16.10;99.90;;;;;;5061591;28;20535;-68
2022/09/09 08:16:49;;;;;;;1999.90;999.90;;;16.20;99.90;;;;;;5064159;28;20052;-68
2022/09/09 08:19:16;;;;;;;1999.90;999.90;;;16.20;99.90;;;;;;5066671;28;20492;-68
2022/09/09 08:21:43;;;;;;;1999.90;999.90;;;16.30;99.90;;;;;;5062573;28;20499;-68
2022/09/09 08:24:10;;;;;;;1999.90;999.90;;;16.30;99.90;;;;;;5067663;28;20048;-68
2022/09/09 08:26:41;;;;;;;1999.90;999.90;;;16.50;99.90;;;;;;5077077;28;20132;-68
2022/09/09 08:29:10;;;;;;;1999.90;999.90;;;16.60;99.90;;;;;;5043383;28;20123;-68
2022/09/09 08:31:42;;;;;;;1999.90;999.90;;;16.60;99.90;;;;;;5061494;28;20054;-68
2022/09/09 08:34:09;;;;;;;1999.90;999.90;;;16.70;99.90;;;;;;5055112;28;20389;-67
2022/09/09 08:36:42;;;;;;;1999.90;999.90;;;16.90;99.90;;;;;;5058480;28;20047;-67
2022/09/09 08:39:11;;;;;;;1999.90;999.90;;;17.10;99.90;;;;;;5088059;28;20043;-67
2022/09/09 08:41:45;;;;;;;1999.90;999.90;;;17.30;99.90;;;;;;5065032;28;20035;-67
2022/09/09 08:44:33;;;;;;;1999.90;999.90;;;17.40;99.90;;;;;;5069778;28;20051;-68
2022/09/09 08:47:23;;;;;;;1999.90;999.90;;;17.60;99.90;;;;;;5055895;28;20047;-68
2022/09/09 08:50:17;;;;;;;1999.90;999.90;;;17.90;99.90;;;;;;5083201;28;20047;-68
2022/09/09 08:53:10;;;;;;;1999.90;999.90;;;18.70;99.90;;;;;;5069757;28;20164;-68
2022/09/09 08:55:54;;;;;;;;;;;19.70;99.90;;;;;;5069484;28;20048;-68
2022/09/09 08:58:21;;;;;;;1999.90;999.90;;;20.10;99.90;;;;;;5069467;28;19975;-68
2022/09/09 09:01:02;;;;;;;1999.90;999.90;;;20.70;99.90;;;;;;5070076;28;20070;-67
2022/09/09 09:03:41;;;;;;;1999.90;999.90;;;20.70;99.90;;;;;;5074023;28;20036;-68
2022/09/09 09:06:22;;;;;;;1999.90;999.90;;;20.70;99.90;;;;;;5058416;28;20048;-68
2022/09/09 09:09:25;;;;;;;1999.90;999.90;;;21.10;99.90;;;;;;5068988;28;20457;-68
2022/09/09 09:12:03;;;;;;;1999.90;999.90;;;21.30;99.90;;;;;;5058591;28;20062;-68
2022/09/09 09:14:33;;;;;;;1999.90;999.90;;;20.80;99.90;;;;;;5069100;28;20039;-68
2022/09/09 09:17:04;;;;;;;1999.90;999.90;;;20.60;99.90;;;;;;5069153;28;20079;-67
2022/09/09 09:19:32;;;;;;;1999.90;999.90;;;20.50;99.90;;;;;;5046226;28;20036;-68
2022/09/09 09:22:16;;;;;;;1999.90;999.90;;;20.20;99.90;;;;;;5067656;28;20495;-68
2022/09/09 09:24:58;;;;;;;1999.90;999.90;;;20.10;99.90;;;;;;5048596;28;20058;-68
2022/09/09 09:27:41;;;;;;;1999.90;999.90;;;20.30;99.90;;;;;;5056586;28;20510;-67
2022/09/09 09:30:17;;;;;;;1999.90;999.90;;;20.20;99.90;;;;;;5067040;28;20036;-68
2022/09/09 09:32:52;;;;;;;1999.90;999.90;;;20.10;99.90;;;;;;5069463;28;20075;-68
2022/09/09 09:35:18;;;;;;;1999.90;999.90;;;19.90;99.90;;;;;;5057282;28;20040;-67
2022/09/09 09:37:45;;;;;;;1999.90;999.90;;;19.90;99.90;;;;;;5085752;28;20097;-68
2022/09/09 09:40:15;;;;;;;1999.90;999.90;;;20.00;99.90;;;;;;5060643;28;20122;-68
2022/09/09 09:43:19;;;;;;;1999.90;999.90;;;20.10;99.90;;;;;;5069246;28;20066;-67
2022/09/09 09:45:45;;;;;;;1999.90;999.90;;;20.10;99.90;;;;;;5055861;28;20041;-67
2022/09/09 09:48:13;;;;;;;1999.90;999.90;;;20.00;99.90;;;;;;5087718;28;20790;-68
2022/09/09 09:50:55;;;;;;;1999.90;999.90;;;20.00;99.90;;;;;;5065373;28;20136;-67
2022/09/09 09:53:31;;;;;;;1999.90;999.90;;;20.00;99.90;;;;;;5075051;28;20084;-68
2022/09/09 09:55:59;;;;;;;1999.90;999.90;;;19.80;99.90;;;;;;5064302;28;20084;-67
2022/09/09 09:58:31;;;;;;;1999.90;999.90;;;19.60;99.90;;;;;;5072644;28;20040;-67
2022/09/09 10:00:57;;;;;;;1999.90;999.90;;;19.30;99.90;;;;;;5059301;28;20048;-68
2022/09/09 10:03:24;;;;;;;1999.90;999.90;;;19.10;99.90;;;;;;5070942;28;20044;-68
2022/09/09 10:05:50;;;;;;;1999.90;999.90;;;19.00;99.90;;;;;;5064146;28;20070;-68
2022/09/09 10:08:17;;;;;;;1999.90;999.90;;;18.90;99.90;;;;;;5069225;28;20040;-67
2022/09/09 10:11:01;;;;;;;1999.90;999.90;;;18.80;99.90;;;;;;5073213;28;20048;-67
2022/09/09 10:13:32;;;;;;;1999.90;999.90;;;18.80;99.90;;;;;;5091196;28;20040;-67
2022/09/09 10:16:22;;;;;;;1999.90;999.90;;;18.80;99.90;;;;;;5073047;28;20058;-67
2022/09/09 10:19:00;;;;;;;1999.90;999.90;;;18.80;99.90;;;;;;5058977;28;20062;-68
2022/09/09 10:21:58;;;;;;;1999.90;999.90;;;18.80;99.90;;;;;;5072583;28;20141;-67
2022/09/09 10:24:44;;;;;;;1999.90;999.90;;;18.80;99.90;;;;;;5050870;28;20076;-67
2022/09/09 10:27:20;;;;;;;1999.90;999.90;;;18.80;99.90;;;;;;5069494;28;20055;-67
2022/09/09 10:30:14;;;;;;;1999.90;999.90;;;18.70;99.90;;;;;;5055662;28;20044;-67
2022/09/09 10:33:09;;;;;;;1999.90;999.90;;;18.70;99.90;;;;;;5064338;28;20060;-67
2022/09/09 10:35:39;;;;;;;1999.90;999.90;;;18.70;99.90;;;;;;5073320;28;20460;-67
2022/09/09 10:38:15;;;;;;;1999.90;999.90;;;19.30;99.90;;;;;;5091069;28;20411;-68
2022/09/09 10:41:11;;;;;;;1999.90;999.90;;;19.60;99.90;;;;;;5084211;28;20044;-67
2022/09/09 10:43:55;;;;;;;1999.90;999.90;;;19.80;99.90;;;;;;5036287;28;20047;-67
2022/09/09 10:46:49;;;;;;;1999.90;999.90;;;20.00;99.90;;;;;;5051454;28;20344;-67
2022/09/09 10:49:40;;;;;;;1999.90;999.90;;;20.10;99.90;;;;;;5097801;28;20110;-67
2022/09/09 10:52:45;;;;;;;1999.90;999.90;;;20.20;99.90;;;;;;5044496;28;20035;-67
2022/09/09 10:55:27;;;;;;;1999.90;999.90;;;20.40;99.90;;;;;;5029354;28;20074;-67
2022/09/09 10:57:57;;;;;;;1999.90;999.90;;;20.40;99.90;;;;;;5054133;28;20063;-68
2022/09/09 11:00:45;;;;;;;1999.90;999.90;;;20.50;99.90;;;;;;5103122;28;20036;-68
2022/09/09 11:03:25;;;;;;;1999.90;999.90;;;20.60;99.90;;;;;;5057394;28;20043;-68
2022/09/09 11:05:57;;;;;;;1999.90;999.90;;;20.70;99.90;;;;;;5068871;28;20044;-68
2022/09/09 11:08:26;;;;;;;1999.90;999.90;;;20.70;99.90;;;;;;5067423;28;20032;-68
2022/09/09 11:11:33;;;;;;;1999.90;999.90;;;20.70;99.90;;;;;;5098478;28;20051;-67
2022/09/09 11:14:24;;;;;;;1999.90;999.90;;;20.80;99.90;;;;;;5027893;28;20415;-68
2022/09/09 11:17:04;;;;;;;1999.90;999.90;;;20.90;99.90;;;;;;5040921;28;20085;-67
2022/09/09 11:19:41;;;;;;;1999.90;999.90;;;21.30;99.90;;;;;;5081549;28;20131;-67
2022/09/09 11:22:31;;;;;;;1999.90;999.90;;;21.20;99.90;;;;;;5089173;28;20036;-67
2022/09/09 11:25:10;;;;;;;1999.90;999.90;;;21.10;99.90;;;;;;5065856;28;20109;-68
2022/09/09 11:28:02;;;;;;;1999.90;999.90;;;21.00;99.90;;;;;;5071898;28;20050;-68
2022/09/09 11:30:56;;;;;;;1999.90;999.90;;;20.90;99.90;;;;;;5076341;28;20063;-68
2022/09/09 11:33:44;;;;;;;1999.90;999.90;;;20.90;99.90;;;;;;5067203;28;20101;-68
2022/09/09 11:36:12;;;;;;;1999.90;999.90;;;20.90;99.90;;;;;;5055475;28;20047;-67
2022/09/09 11:38:51;;;;;;;1999.90;999.90;;;20.70;99.90;;;;;;5076730;28;20039;-68
2022/09/09 11:41:20;;;;;;;1999.90;999.90;;;20.60;99.90;;;;;;5067688;28;20495;-68
2022/09/09 11:43:55;;;;;;;1999.90;999.90;;;20.50;99.90;;;;;;5094790;28;20574;-68
2022/09/09 11:46:33;;;;;;;1999.90;999.90;;;20.40;99.90;;;;;;5073647;28;20396;-67
2022/09/09 11:49:05;;;;;;;1999.90;999.90;;;20.50;99.90;;;;;;5065014;28;20039;-67
2022/09/09 11:51:33;;;;;;;1999.90;999.90;;;20.60;99.90;;;;;;5088633;28;20483;-68
2022/09/09 11:54:04;;;;;;;1999.90;999.90;;;20.70;99.90;;;;;;5048903;28;20408;-68
2022/09/09 11:56:44;;;;;;;1999.90;999.90;;;20.80;99.90;;;;;;5083295;28;20051;-68
2022/09/09 11:59:25;;;;;;;1999.90;999.90;;;20.90;99.90;;;;;;5086217;28;20040;-68
2022/09/09 12:02:01;;;;;;;1999.90;999.90;;;20.70;99.90;;;;;;5053665;28;20158;-68
2022/09/09 12:04:32;;;;;;;1999.90;999.90;;;20.50;99.90;;;;;;5080542;28;20047;-68
2022/09/09 12:07:29;;;;;;;1999.90;999.90;;;20.40;99.90;;;;;;5066367;28;20459;-68
2022/09/09 12:10:19;;;;;;;1999.90;999.90;;;20.40;99.90;;;;;;5056069;28;20106;-69
2022/09/09 12:12:44;;;;;;;1999.90;999.90;;;20.60;99.90;;;;;;5059904;28;20043;-67
2022/09/09 12:15:10;;;;;;;1999.90;999.90;;;20.50;99.90;;;;;;5048930;28;20396;-70
2022/09/09 12:17:47;;;;;;;1999.90;999.90;;;20.40;99.90;;;;;;5051589;28;20047;-67
2022/09/09 12:20:17;;;;;;;1999.90;999.90;;;20.30;99.90;;;;;;5066057;28;20074;-67
2022/09/09 12:22:51;;;;;;;1999.90;999.90;;;20.30;99.90;;;;;;5066583;28;20442;-67
2022/09/09 12:25:23;;;;;;;1999.90;999.90;;;20.20;99.90;;;;;;5049162;28;20583;-67